Time;durP1;ratioP1;P1;durP2;ratioP2;P2;SDS_P1;SDS_P2;PMS_P1;PMS_P2;Temp;Humidity;BMP_temperature;BMP_pressure;BME280_temperature;BME280_humidity;BME280_pressure;Samples;Min_cycle;Max_cycle;Signal;HPM_P1;HPM_P2
2022/12/07 00:03:50;;;;;;;5.20;4.80;;;;;;;7.29;59.64;97875.47;8379935;28;20241;-72
2022/12/07 00:07:54;;;;;;;5.37;4.90;;;;;;;7.16;59.86;97875.00;8379480;28;20299;-72
2022/12/07 00:11:57;;;;;;;4.90;4.40;;;;;;;7.42;59.45;97871.59;8379568;28;20468;-71
2022/12/07 00:16:02;;;;;;;4.90;4.50;;;;;;;7.47;59.58;97871.47;8379608;28;20237;-71
2022/12/07 00:20:06;;;;;;;5.00;4.60;;;;;;;7.51;59.55;97871.28;8379504;28;20225;-71
2022/12/07 00:24:12;;;;;;;5.77;5.23;;;;;;;7.42;59.36;97861.28;8379246;28;20224;-72
2022/12/07 00:28:15;;;;;;;6.10;5.50;;;;;;;7.47;59.53;97869.72;8379011;28;20236;-71
2022/12/07 00:32:18;;;;;;;5.80;5.30;;;;;;;7.45;59.54;97861.19;8379318;28;20460;-72
2022/12/07 00:36:24;;;;;;;5.70;5.20;;;;;;;7.56;58.99;97859.09;8379171;28;20274;-71
2022/12/07 00:40:31;;;;;;;5.40;4.90;;;;;;;7.46;59.64;97851.72;8379321;28;20239;-71
2022/12/07 00:44:33;;;;;;;5.93;5.43;;;;;;;7.48;59.53;97852.50;8379106;28;20229;-71
2022/12/07 00:48:36;;;;;;;6.67;6.07;;;;;;;7.37;58.97;97843.41;8378701;28;20228;-72
2022/12/07 00:52:39;;;;;;;6.30;5.80;;;;;;;7.31;59.69;97869.38;8378758;28;20308;-72
2022/12/07 00:56:43;;;;;;;7.13;6.43;;;;;;;7.27;59.53;97860.06;8378716;28;20248;-72
2022/12/07 01:00:46;;;;;;;7.00;6.40;;;;;;;7.34;59.53;97850.41;8378832;28;20236;-72
2022/12/07 01:04:49;;;;;;;7.07;6.40;;;;;;;7.46;58.95;97862.88;8378882;28;20299;-72
2022/12/07 01:08:52;;;;;;;7.97;7.17;;;;;;;7.43;59.22;97857.84;8378463;28;20462;-71
2022/12/07 01:12:57;;;;;;;7.90;6.90;;;;;;;7.38;59.36;97860.53;8382141;28;20421;-72
2022/12/07 01:16:59;;;;;;;7.70;7.00;;;;;;;7.44;59.26;97855.22;8385410;28;20236;-72
2022/12/07 01:21:04;;;;;;;7.13;6.43;;;;;;;7.36;59.09;97854.59;8385121;28;20244;-72
2022/12/07 01:25:07;;;;;;;7.90;7.20;;;;;;;7.41;59.35;97857.03;8385313;28;20372;-72
2022/12/07 01:29:11;;;;;;;8.00;7.30;;;;;;;7.39;59.23;97856.25;8384921;28;20282;-72
2022/12/07 01:33:14;;;;;;;7.00;6.30;;;;;;;7.36;59.38;97853.78;8384817;28;20220;-72
2022/12/07 01:37:17;;;;;;;7.80;7.10;;;;;;;7.34;59.28;97850.41;8384452;28;20225;-72
2022/12/07 01:41:21;;;;;;;7.47;6.50;;;;;;;7.39;58.81;97856.25;8384584;28;20228;-72
2022/12/07 01:45:40;;;;;;;7.33;6.63;;;;;;;7.31;59.33;97861.66;8384529;28;20233;-72
2022/12/07 01:49:45;;;;;;;7.20;6.53;;;;;;;7.37;59.02;97860.63;8383859;28;20237;-72
2022/12/07 01:53:47;;;;;;;7.43;6.73;;;;;;;7.40;59.42;97869.06;8383878;28;20236;-72
2022/12/07 01:57:52;;;;;;;7.63;6.93;;;;;;;7.36;59.25;97856.34;8383923;28;20294;-72
2022/12/07 02:01:57;;;;;;;7.90;7.07;;;;;;;7.43;59.05;97857.84;8375761;28;20294;-71
2022/12/07 02:06:00;;;;;;;6.83;6.20;;;;;;;7.50;59.52;97854.16;8383853;28;20255;-72
2022/12/07 02:10:14;;;;;;;7.50;6.67;;;;;;;7.43;58.70;97852.69;8383548;28;20438;-72
2022/12/07 02:14:16;;;;;;;7.97;7.17;;;;;;;7.44;59.17;97856.91;8382699;28;20228;-72
2022/12/07 02:18:28;;;;;;;7.03;6.33;;;;;;;7.40;58.77;97845.03;8382808;28;20236;-72
2022/12/07 02:22:58;;;;;;;8.03;6.70;;;;;;;7.49;58.55;97834.44;8382475;28;20236;-72
2022/12/07 02:27:34;;;;;;;8.63;7.40;;;;;;;7.36;58.35;97846.03;8381325;28;20240;-72
2022/12/07 02:31:41;;;;;;;7.90;7.20;;;;;;;7.35;58.32;97847.78;8382018;28;20236;-72
2022/12/07 02:35:47;;;;;;;8.30;7.57;;;;;;;7.29;58.40;97837.69;8381773;28;20416;-72
2022/12/07 02:39:53;;;;;;;8.50;7.70;;;;;;;7.27;57.76;97828.31;8381885;28;20229;-72
2022/12/07 02:43:58;;;;;;;8.87;8.00;;;;;;;7.34;57.94;97822.06;8381270;28;20366;-72
2022/12/07 02:48:03;;;;;;;8.53;7.73;;;;;;;7.26;57.85;97813.75;8381416;28;20237;-72
2022/12/07 02:52:06;;;;;;;8.53;7.73;;;;;;;7.18;57.34;97804.56;8381409;28;20267;-72
2022/12/07 02:56:14;;;;;;;8.87;8.07;;;;;;;6.98;58.21;97804.34;8381586;28;20229;-72
2022/12/07 03:00:20;;;;;;;9.70;8.73;;;;;;;7.05;58.39;97809.25;8381123;28;20236;-72
2022/12/07 03:04:35;;;;;;;9.13;8.23;;;;;;;7.07;57.72;97792.94;8380913;28;20332;-72
2022/12/07 03:08:48;;;;;;;9.47;8.40;;;;;;;7.14;57.22;97796.97;8380809;28;20233;-72
2022/12/07 03:12:58;;;;;;;9.47;8.53;;;;;;;7.20;57.22;97789.88;8381130;28;20229;-72
2022/12/07 03:17:06;;;;;;;10.10;9.00;;;;;;;7.06;57.12;97779.19;8380280;28;20245;-72
2022/12/07 03:21:16;;;;;;;10.40;9.30;;;;;;;7.05;57.20;97804.09;8381010;28;20236;-72
2022/12/07 03:25:19;;;;;;;10.23;9.23;;;;;;;7.08;57.23;97810.03;8380603;28;20422;-72
2022/12/07 03:29:26;;;;;;;9.27;8.37;;;;;;;7.06;56.70;97792.06;8380111;28;20249;-72
2022/12/07 03:33:32;;;;;;;10.30;9.20;;;;;;;7.09;56.97;97784.25;8380031;28;20236;-72
2022/12/07 03:37:41;;;;;;;10.70;8.80;;;;;;;7.08;56.65;97787.69;8378915;28;20236;-72
2022/12/07 03:41:44;;;;;;;11.03;9.50;;;;;;;6.86;57.54;97800.44;8380345;28;20237;-72
2022/12/07 03:45:54;;;;;;;10.63;9.53;;;;;;;6.87;57.46;97802.13;8379681;28;20278;-72
2022/12/07 03:50:00;;;;;;;10.33;9.33;;;;;;;6.90;57.67;97789.16;8379085;28;20358;-72
2022/12/07 03:54:12;;;;;;;9.57;8.67;;;;;;;6.87;57.20;97780.69;8379555;28;20232;-72
2022/12/07 03:58:17;;;;;;;10.63;9.53;;;;;;;6.89;57.50;97796.94;8379605;28;20248;-72
2022/12/07 04:02:20;;;;;;;10.53;9.43;;;;;;;6.92;58.03;97794.25;8379506;28;20232;-72
2022/12/07 04:06:23;;;;;;;12.00;10.10;;;;;;;6.77;57.54;97795.59;8379276;28;20335;-72
2022/12/07 04:10:27;;;;;;;10.33;9.23;;;;;;;6.91;57.62;97790.84;8379165;28;20432;-72
2022/12/07 04:14:30;;;;;;;10.80;9.70;;;;;;;6.96;57.49;97795.84;8379051;28;20225;-72
2022/12/07 04:18:33;;;;;;;11.07;9.93;;;;;;;6.92;57.27;97796.84;8378843;28;20252;-72
2022/12/07 04:22:36;;;;;;;11.33;10.13;;;;;;;6.88;57.94;97797.84;8378711;28;20419;-72
2022/12/07 04:26:40;;;;;;;11.37;9.73;;;;;;;6.77;57.84;97780.16;8378353;28;20267;-72
2022/12/07 04:30:43;;;;;;;12.03;9.87;;;;;;;6.79;57.77;97784.34;8379014;28;20462;-72
2022/12/07 04:34:45;;;;;;;12.57;10.00;;;;;;;6.90;57.78;97780.59;8378811;28;20239;-72
2022/12/07 04:38:54;;;;;;;12.50;10.97;;;;;;;6.88;56.80;97777.25;8378546;28;20278;-72
2022/12/07 04:42:58;;;;;;;12.87;11.13;;;;;;;6.84;57.15;97779.91;8378811;28;20233;-72
2022/12/07 04:47:01;;;;;;;12.97;11.47;;;;;;;6.80;57.61;97778.31;8377737;28;20259;-72
2022/12/07 04:51:04;;;;;;;13.43;12.00;;;;;;;6.95;57.65;97776.13;8378758;28;20244;-72
2022/12/07 04:55:07;;;;;;;12.90;11.07;;;;;;;6.89;57.30;97772.00;8377779;28;20267;-72
2022/12/07 04:59:12;;;;;;;14.00;12.00;;;;;;;6.92;56.57;97786.53;8378691;28;20232;-72
2022/12/07 05:03:15;;;;;;;13.97;11.97;;;;;;;6.87;58.09;97784.09;8378520;28;20232;-72
2022/12/07 05:07:18;;;;;;;14.03;11.97;;;;;;;6.96;57.72;97785.53;8378275;28;20537;-72
2022/12/07 05:15:44;;;;;;;14.77;12.30;;;;;;;6.84;57.43;97789.38;8371106;28;20389;-73
2022/12/07 05:19:47;;;;;;;14.03;12.53;;;;;;;6.87;57.53;97783.25;8377889;28;20232;-71
2022/12/07 05:23:50;;;;;;;14.33;12.37;;;;;;;6.81;57.00;97758.56;8377816;28;20240;-71
2022/12/07 05:27:55;;;;;;;14.17;12.10;;;;;;;7.04;57.17;97788.69;8377223;28;20241;-71
2022/12/07 05:31:59;;;;;;;14.37;12.60;;;;;;;6.91;56.56;97784.84;8377505;28;20237;-72
2022/12/07 05:36:05;;;;;;;14.47;12.93;;;;;;;6.88;57.02;97788.38;8377672;28;20536;-72
2022/12/07 05:40:09;;;;;;;14.47;12.03;;;;;;;6.92;56.92;97774.50;8377531;28;20296;-71
2022/12/07 05:44:12;;;;;;;13.67;12.13;;;;;;;6.90;56.89;97776.28;8377222;28;22772;-72
2022/12/07 05:48:16;;;;;;;12.70;11.40;;;;;;;6.99;56.85;97786.28;8376906;28;20228;-72
2022/12/07 05:52:18;;;;;;;15.77;13.37;;;;;;;6.87;57.44;97773.81;8377224;28;20217;-71
2022/12/07 05:56:21;;;;;;;16.60;13.20;;;;;;;6.92;56.80;97768.53;8377417;28;20297;-72
2022/12/07 06:00:24;;;;;;;13.30;11.87;;;;;;;6.97;56.80;97769.22;8380228;28;20228;-72
2022/12/07 06:04:30;;;;;;;14.07;12.57;;;;;;;6.80;57.25;97772.34;8382944;28;20532;-72
2022/12/07 06:08:33;;;;;;;14.23;12.43;;;;;;;6.82;56.92;97773.13;8382678;28;20241;-72
2022/12/07 06:12:38;;;;;;;14.83;12.93;;;;;;;6.81;57.71;97774.84;8382586;28;20263;-72
2022/12/07 06:16:40;;;;;;;14.37;12.80;;;;;;;6.73;57.49;97781.97;8382477;28;20336;-72
2022/12/07 06:20:45;;;;;;;14.20;12.70;;;;;;;6.67;57.44;97771.88;8382356;28;20240;-73
2022/12/07 06:24:47;;;;;;;15.20;12.73;;;;;;;6.71;56.78;97763.16;8382280;28;20229;-72
2022/12/07 06:28:50;;;;;;;12.90;11.60;;;;;;;6.84;56.71;97769.59;8382177;28;20229;-73
2022/12/07 06:32:53;;;;;;;13.63;12.23;;;;;;;6.51;57.33;97756.09;8373813;28;20220;-72
2022/12/07 06:36:57;;;;;;;13.00;11.53;;;;;;;6.83;57.00;97765.38;8382671;28;20248;-74
2022/12/07 06:41:00;;;;;;;12.97;11.57;;;;;;;6.49;57.21;97768.13;8382429;28;20236;-72
2022/12/07 06:45:03;;;;;;;12.37;11.03;;;;;;;6.84;56.69;97772.19;8381910;28;20236;-72
2022/12/07 06:49:06;;;;;;;12.97;11.33;;;;;;;6.77;56.69;97772.44;8381089;28;20537;-72
2022/12/07 06:53:10;;;;;;;12.13;10.93;;;;;;;6.60;56.50;97770.38;8381608;28;20232;-71
2022/12/07 06:57:13;;;;;;;12.30;11.07;;;;;;;6.67;57.16;97776.19;8381429;28;20228;-72
2022/12/07 07:01:18;;;;;;;14.00;11.73;;;;;;;6.70;56.43;97782.09;8381101;28;20233;-72
2022/12/07 07:05:22;;;;;;;12.93;11.40;;;;;;;6.56;56.88;97773.94;8380783;28;20221;-72
2022/12/07 07:09:26;;;;;;;14.43;12.80;;;;;;;6.44;57.79;97778.59;8380030;28;20275;-72
2022/12/07 07:13:29;;;;;;;13.50;12.10;;;;;;;6.61;57.64;97784.94;8380871;28;20579;-72
2022/12/07 07:17:31;;;;;;;15.80;12.87;;;;;;;6.60;57.43;97778.09;8381339;28;20225;-72
2022/12/07 07:21:34;;;;;;;14.57;12.97;;;;;;;6.51;58.13;97776.69;8381032;28;20233;-72
2022/12/07 07:25:38;;;;;;;14.27;12.67;;;;;;;6.69;57.94;97775.25;8380560;28;20236;-72
2022/12/07 07:29:41;;;;;;;16.47;13.30;;;;;;;6.67;57.64;97777.03;8380583;28;20422;-72
2022/12/07 07:33:44;;;;;;;16.90;13.77;;;;;;;6.70;58.31;97779.50;8380225;28;20225;-72
2022/12/07 07:37:46;;;;;;;18.07;14.60;;;;;;;6.57;58.49;97783.38;8380367;28;20233;-72
2022/12/07 07:41:50;;;;;;;17.80;14.73;;;;;;;6.52;58.89;97791.22;8380000;28;20225;-72
2022/12/07 07:45:53;;;;;;;17.43;14.30;;;;;;;6.53;59.48;97790.34;8371344;28;20225;-70
2022/12/07 07:49:57;;;;;;;16.83;14.77;;;;;;;6.75;59.00;97795.63;8379576;28;20560;-72
2022/12/07 07:54:00;;;;;;;15.00;13.40;;;;;;;6.78;58.74;97798.13;8379477;28;20225;-72
2022/12/07 07:58:04;;;;;;;15.93;14.23;;;;;;;6.58;59.32;97792.75;8379585;28;20229;-72
2022/12/07 08:02:06;;;;;;;14.73;13.17;;;;;;;6.73;59.42;97796.59;8379524;28;20240;-72
2022/12/07 08:06:09;;;;;;;16.83;14.13;;;;;;;6.78;59.18;97795.53;8379210;28;20228;-71
2022/12/07 08:10:14;;;;;;;16.10;13.97;;;;;;;6.53;59.25;97802.34;8379194;28;20257;-71
2022/12/07 08:14:18;;;;;;;15.50;13.10;;;;;;;6.79;59.07;97806.69;8379300;28;20245;-72
2022/12/07 08:18:20;;;;;;;17.03;13.90;;;;;;;6.74;58.83;97799.13;8379172;28;20228;-71
2022/12/07 08:22:23;;;;;;;14.30;12.80;;;;;;;6.87;59.28;97802.13;8378565;28;20243;-72
2022/12/07 08:26:26;;;;;;;13.73;12.33;;;;;;;7.05;59.03;97798.94;8379403;28;20331;-73
2022/12/07 08:30:30;;;;;;;14.33;12.03;;;;;;;6.84;58.59;97805.63;8379711;28;20236;-72
2022/12/07 08:34:33;;;;;;;14.13;11.80;;;;;;;6.65;59.50;97807.94;8379367;28;20240;-73
2022/12/07 08:38:37;;;;;;;12.97;11.27;;;;;;;6.92;59.16;97807.97;8379294;28;20244;-71
2022/12/07 08:42:40;;;;;;;12.33;11.03;;;;;;;7.01;59.15;97799.94;8378632;28;20236;-72
2022/12/07 08:46:47;;;;;;;12.57;11.17;;;;;;;7.06;59.29;97815.25;8379060;28;20232;-72
2022/12/07 08:50:51;;;;;;;11.27;9.63;;;;;;;7.06;59.66;97807.50;8378919;28;20330;-73
2022/12/07 08:54:54;;;;;;;11.47;10.27;;;;;;;6.89;59.90;97804.66;8378270;28;20280;-72
2022/12/07 08:58:58;;;;;;;10.90;9.40;;;;;;;6.77;60.70;97808.47;8378640;28;20351;-71
2022/12/07 09:03:02;;;;;;;10.90;9.80;;;;;;;6.79;60.12;97811.81;8378563;28;20267;-72
2022/12/07 09:07:05;;;;;;;10.83;9.30;;;;;;;6.99;59.59;97821.50;8378130;28;20255;-72
2022/12/07 09:11:08;;;;;;;11.03;9.63;;;;;;;6.70;60.65;97824.97;8378586;28;20363;-73
2022/12/07 09:15:11;;;;;;;10.90;9.80;;;;;;;6.98;59.88;97814.66;8378649;28;20485;-72
2022/12/07 09:19:15;;;;;;;11.63;10.30;;;;;;;6.74;60.58;97816.25;8378489;28;20375;-72
2022/12/07 09:23:18;;;;;;;11.50;9.93;;;;;;;6.88;59.79;97819.25;8378342;28;20233;-72
2022/12/07 09:27:21;;;;;;;10.77;9.67;;;;;;;6.84;59.81;97825.41;8378032;28;20244;-72
2022/12/07 09:31:23;;;;;;;11.53;9.53;;;;;;;7.13;59.15;97819.31;8378085;28;20267;-72
2022/12/07 09:35:29;;;;;;;10.43;9.43;;;;;;;7.01;59.68;97804.28;8383596;28;20300;-73
2022/12/07 09:39:32;;;;;;;12.40;9.80;;;;;;;7.32;59.15;97811.81;8384093;28;20524;-73
2022/12/07 09:43:36;;;;;;;10.93;8.97;;;;;;;7.19;59.43;97813.09;8384380;28;20529;-73
2022/12/07 09:47:39;;;;;;;12.97;10.90;;;;;;;6.95;59.88;97813.03;8383818;28;20228;-72
2022/12/07 09:51:43;;;;;;;16.73;13.13;;;;;;;7.13;59.53;97814.16;8383948;28;20233;-70
2022/12/07 09:55:46;;;;;;;20.93;15.87;;;;;;;7.24;59.48;97813.81;8383531;28;20244;-74
2022/12/07 09:59:49;;;;;;;13.73;11.63;;;;;;;7.37;59.54;97803.94;8383749;28;20486;-73
2022/12/07 10:03:53;;;;;;;10.63;9.57;;;;;;;7.33;58.57;97795.47;8383786;28;20512;-72
2022/12/07 10:07:58;;;;;;;10.40;9.30;;;;;;;7.50;58.43;97802.63;8382866;28;20552;-72
2022/12/07 10:12:06;;;;;;;11.47;10.27;;;;;;;7.35;59.52;97810.84;8383211;28;20259;-73
2022/12/07 10:16:33;;;;;;;10.43;8.23;;;;;;;10.13;76.39;97797.38;8383254;28;20232;-79
2022/12/07 10:20:35;;;;;;;8.40;7.53;;;;;;;10.82;65.85;97793.34;8383800;28;20324;-78
2022/12/07 10:24:42;;;;;;;9.40;8.17;;;;;;;10.90;55.33;97773.06;8383243;28;20400;-78
2022/12/07 10:28:44;;;;;;;8.10;7.40;;;;;;;11.50;54.51;97784.84;8383103;28;20229;-79
2022/12/07 10:32:48;;;;;;;10.03;9.13;;;;;;;10.71;50.97;97777.47;8386313;28;20236;-74
2022/12/07 10:36:51;;;;;;;11.03;9.93;;;;;;;9.18;54.75;97781.66;8383296;28;20232;-74
2022/12/07 10:41:05;;;;;;;11.63;10.43;;;;;;;8.88;55.13;97778.56;8381459;28;20249;-75
2022/12/07 10:45:14;;;;;;;10.90;9.80;;;;;;;8.48;55.87;97777.56;8381432;28;20238;-75
2022/12/07 10:49:39;;;;;;;11.53;10.37;;;;;;;8.28;56.24;97780.03;8381561;28;20526;-73
2022/12/07 10:53:50;;;;;;;11.10;9.97;;;;;;;8.26;56.73;97790.41;8381880;28;20225;-75
2022/12/07 10:58:19;;;;;;;10.40;9.40;;;;;;;8.18;56.90;97787.28;8381704;28;20233;-74
2022/12/07 11:02:27;;;;;;;11.30;10.20;;;;;;;8.19;57.15;97787.25;8381416;28;20404;-73
2022/12/07 11:06:35;;;;;;;9.60;8.77;;;;;;;7.83;57.94;97763.66;8381581;28;20240;-73
2022/12/07 11:10:43;;;;;;;11.10;10.00;;;;;;;7.93;58.39;97770.16;8380966;28;20233;-74
2022/12/07 11:14:53;;;;;;;11.27;10.10;;;;;;;7.94;58.00;97774.41;8381330;28;20278;-74
2022/12/07 11:19:18;;;;;;;11.13;10.03;;;;;;;8.08;58.40;97765.34;8380797;28;20220;-74
2022/12/07 11:23:35;;;;;;;11.67;9.33;;;;;;;7.69;58.42;97765.88;8381226;28;20224;-74
2022/12/07 11:27:41;;;;;;;10.73;9.03;;;;;;;7.93;58.60;97746.09;8381118;28;20229;-74
2022/12/07 11:31:59;;;;;;;10.97;9.83;;;;;;;7.38;58.90;97702.56;8381109;28;20259;-73
2022/12/07 11:36:10;;;;;;;11.47;10.27;;;;;;;7.79;58.90;97734.56;8380444;28;20466;-74
2022/12/07 11:40:19;;;;;;;10.60;9.50;;;;;;;7.92;58.50;97740.13;8380261;28;20248;-75
2022/12/07 11:44:30;;;;;;;10.50;9.03;;;;;;;7.57;59.48;97747.38;8380682;28;20236;-74
2022/12/07 11:48:38;;;;;;;11.13;9.53;;;;;;;7.55;59.26;97748.34;8380781;28;20233;-74
2022/12/07 11:52:45;;;;;;;12.27;10.97;;;;;;;7.83;58.86;97741.28;8380145;28;20232;-74
2022/12/07 11:56:49;;;;;;;11.20;10.00;;;;;;;7.81;58.67;97745.66;8379056;28;20225;-74
2022/12/07 12:00:53;;;;;;;10.07;9.07;;;;;;;7.87;58.99;97731.69;8379923;28;20248;-74
2022/12/07 12:05:03;;;;;;;10.37;9.27;;;;;;;7.97;58.97;97737.34;8379370;28;20517;-74
2022/12/07 12:09:12;;;;;;;12.18;11.00;;;;;;;8.52;56.83;97734.41;8377875;28;20428;-74
2022/12/07 12:13:57;;;;;;;10.07;8.80;;;;;;;8.04;58.26;97733.66;8379520;28;20615;-74
2022/12/07 12:18:44;;;;;;;10.20;9.17;;;;;;;8.10;58.41;97727.44;8379196;28;20298;-74
2022/12/07 12:22:51;;;;;;;9.30;8.27;;;;;;;8.02;58.35;97717.41;8372170;28;20229;-75
2022/12/07 12:26:59;;;;;;;10.17;9.17;;;;;;;7.94;58.52;97720.28;8378470;28;20232;-73
2022/12/07 12:31:08;;;;;;;9.30;8.40;;;;;;;7.86;58.49;97718.88;8378629;28;20233;-73
2022/12/07 12:35:38;;;;;;;8.77;7.97;;;;;;;7.82;58.64;97715.56;8379143;28;20256;-73
2022/12/07 12:40:20;;;;;;;8.73;7.90;;;;;;;7.95;58.62;97711.63;8342678;28;20314;-74
2022/12/07 12:44:43;;;;;;;10.37;9.03;;;;;;;7.90;58.36;97710.97;8374708;28;20225;-74
2022/12/07 12:48:46;;;;;;;10.00;9.00;;;;;;;7.90;58.39;97703.25;8378568;28;20524;-74
2022/12/07 12:53:01;;;;;;;13.90;11.80;;;;;;;7.93;58.68;97707.44;8378451;28;20241;-73
2022/12/07 12:57:10;;;;;;;10.23;9.10;;;;;;;7.77;58.53;97697.69;8371808;28;20231;-73
2022/12/07 13:01:44;;;;;;;9.47;8.33;;;;;;;7.94;59.01;97699.63;8377998;28;20229;-74
2022/12/07 13:05:47;;;;;;;11.70;10.00;;;;;;;7.91;58.28;97692.00;8377916;28;20306;-74
2022/12/07 13:09:50;;;;;;;10.55;9.52;;;;;;;8.34;57.71;97692.06;8381948;28;20433;-73
2022/12/07 13:14:32;;;;;;;9.57;8.57;;;;;;;8.01;57.97;97693.34;8385315;28;20232;-73
2022/12/07 13:18:37;;;;;;;9.43;8.50;;;;;;;8.12;57.74;97685.19;8385112;28;20228;-74
2022/12/07 13:22:44;;;;;;;9.60;8.37;;;;;;;7.91;57.88;97688.59;8384902;28;20450;-74
2022/12/07 13:26:47;;;;;;;8.80;7.90;;;;;;;8.00;58.30;97691.66;8384496;28;20252;-74
2022/12/07 13:31:01;;;;;;;10.33;8.20;;;;;;;7.77;58.64;97692.53;8384277;28;20322;-73
2022/12/07 13:35:42;;;;;;;8.90;8.03;;;;;;;8.04;57.94;97687.22;8384104;28;20224;-74
2022/12/07 13:39:48;;;;;;;9.32;8.38;;;;;;;8.03;57.69;97686.41;8373883;28;20417;-73
2022/12/07 13:43:53;;;;;;;9.30;8.40;;;;;;;8.06;57.89;97690.59;8384099;28;20450;-73
2022/12/07 13:47:58;;;;;;;9.07;8.18;;;;;;;8.11;58.21;97688.69;8383903;28;20394;-74
2022/12/07 13:52:14;;;;;;;9.83;8.83;;;;;;;8.17;57.04;97690.19;8384007;28;20236;-74
2022/12/07 13:56:19;;;;;;;9.00;7.93;;;;;;;8.11;57.91;97687.81;8383455;28;20240;-74
2022/12/07 14:00:24;;;;;;;10.77;9.30;;;;;;;8.08;57.81;97672.47;8383231;28;20225;-74
2022/12/07 14:04:33;;;;;;;12.37;9.60;;;;;;;8.06;57.84;97689.75;8383039;28;20270;-74
2022/12/07 14:08:36;;;;;;;13.77;11.27;;;;;;;7.95;57.56;97683.25;8382995;28;20236;-74
2022/12/07 14:12:43;;;;;;;10.90;9.10;;;;;;;7.95;57.76;97685.84;8383818;28;20233;-74
2022/12/07 14:16:58;;;;;;;14.87;11.23;;;;;;;8.18;58.05;97689.25;8383081;28;20231;-74
2022/12/07 14:21:05;;;;;;;11.50;9.60;;;;;;;7.88;57.72;97683.53;8381685;28;20229;-74
2022/12/07 14:25:20;;;;;;;7.37;6.37;;;;;;;7.77;57.13;97682.22;8380723;28;20233;-74
2022/12/07 14:29:32;;;;;;;7.67;6.63;;;;;;;7.72;57.17;97662.66;8382766;28;20310;-74
2022/12/07 14:33:35;;;;;;;17.97;13.77;;;;;;;7.83;56.78;97674.25;8381869;28;20406;-73
2022/12/07 14:37:40;;;;;;;12.30;11.00;;;;;;;8.29;55.93;97669.03;8380816;28;20475;-75
2022/12/07 14:41:51;;;;;;;9.33;7.40;;;;;;;7.90;56.88;97681.75;8382622;28;20228;-75
2022/12/07 14:45:55;;;;;;;9.57;8.60;;;;;;;7.99;56.58;97674.50;8382045;28;20236;-74
2022/12/07 14:49:58;;;;;;;9.17;7.47;;;;;;;7.87;57.00;97672.41;8382257;28;20513;-74
2022/12/07 14:54:12;;;;;;;11.73;10.53;;;;;;;7.42;57.19;97625.13;8381968;28;20259;-74
2022/12/07 14:58:16;;;;;;;10.70;9.67;;;;;;;7.78;57.16;97671.00;8380246;28;20527;-75
2022/12/07 15:02:20;;;;;;;9.30;8.03;;;;;;;7.86;57.09;97662.97;8381804;28;20248;-75
2022/12/07 15:06:23;;;;;;;8.10;7.30;;;;;;;7.89;57.21;97668.03;8381204;28;20445;-74
2022/12/07 15:10:29;;;;;;;8.10;7.30;;;;;;;7.44;57.83;97619.88;8381566;28;20236;-73
2022/12/07 15:14:32;;;;;;;8.30;7.40;;;;;;;7.78;57.52;97660.69;8381488;28;20537;-76
2022/12/07 15:18:36;;;;;;;8.27;7.43;;;;;;;7.70;57.98;97667.06;8381247;28;20221;-74
2022/12/07 15:22:39;;;;;;;10.40;8.10;;;;;;;7.68;58.42;97666.28;8379825;28;20233;-74
2022/12/07 15:26:42;;;;;;;9.20;8.30;;;;;;;7.66;58.54;97660.34;8380500;28;20244;-74
2022/12/07 15:30:45;;;;;;;11.33;9.87;;;;;;;7.48;59.38;97664.41;8380761;28;20501;-74
2022/12/07 15:34:50;;;;;;;10.23;9.17;;;;;;;7.51;59.08;97665.16;8381279;28;20225;-76
2022/12/07 15:38:53;;;;;;;14.00;11.27;;;;;;;7.33;59.69;97665.81;8380562;28;20233;-73
2022/12/07 15:47:50;;;;;;;14.43;10.63;;;;;;;7.60;59.83;97661.41;8409620;27;20429;-75
2022/12/07 15:52:12;;;;;;;12.40;10.50;;;;;;;7.70;59.52;97649.84;8407411;28;20247;-74
2022/12/07 15:56:15;;;;;;;11.87;10.17;;;;;;;7.66;59.90;97653.44;8408174;28;20228;-75
2022/12/07 16:00:20;;;;;;;16.40;13.63;;;;;;;7.59;60.05;97650.22;8407609;28;20271;-74
2022/12/07 16:04:24;;;;;;;15.43;13.30;;;;;;;7.60;59.91;97640.78;8407132;28;20334;-74
2022/12/07 16:08:28;;;;;;;16.07;14.17;;;;;;;7.55;60.18;97648.66;8407572;28;20243;-73
2022/12/07 16:12:39;;;;;;;13.30;9.93;;;;;;;7.56;61.48;97649.53;8403888;28;20220;-72
2022/12/07 16:16:45;;;;;;;11.00;9.20;;;;;;;7.61;59.66;97645.03;8405317;28;20224;-74
2022/12/07 16:20:54;;;;;;;11.87;10.27;;;;;;;7.58;59.95;97645.16;8405146;28;20543;-74
2022/12/07 16:24:58;;;;;;;11.60;9.40;;;;;;;7.38;59.94;97636.41;8403237;28;20243;-73
2022/12/07 16:29:02;;;;;;;11.90;9.17;;;;;;;7.59;60.00;97642.50;8407320;28;20415;-73
2022/12/07 16:33:04;;;;;;;11.30;9.63;;;;;;;7.67;59.41;97638.81;8406820;28;20228;-72
2022/12/07 16:37:09;;;;;;;10.10;9.07;;;;;;;7.62;59.70;97642.41;8406731;28;20233;-73
2022/12/07 16:41:12;;;;;;;13.00;11.53;;;;;;;7.70;59.88;97647.25;8406099;28;21945;-73
2022/12/07 16:45:16;;;;;;;11.80;10.60;;;;;;;7.64;59.69;97645.75;8405649;28;20229;-74
2022/12/07 16:49:23;;;;;;;10.67;9.57;;;;;;;7.69;59.77;97637.88;8405771;28;20220;-73
2022/12/07 16:53:28;;;;;;;13.23;11.43;;;;;;;7.75;59.48;97642.78;8405276;28;20232;-72
2022/12/07 16:57:31;;;;;;;17.03;13.40;;;;;;;7.74;59.78;97642.84;8392156;28;20544;-74
2022/12/07 17:01:34;;;;;;;15.80;13.37;;;;;;;7.69;59.77;97632.72;8383517;28;20229;-74
2022/12/07 17:05:39;;;;;;;11.97;10.77;;;;;;;7.61;59.26;97620.09;8382654;28;20236;-75
2022/12/07 17:09:43;;;;;;;14.03;11.93;;;;;;;7.68;59.71;97628.44;8382775;28;20232;-75
2022/12/07 17:18:06;;;;;;;14.87;11.67;;;;;;;7.51;59.64;97605.88;8382636;28;20535;-74
2022/12/07 17:22:11;;;;;;;13.10;11.63;;;;;;;7.45;59.97;97616.44;8388087;28;20224;-73
2022/12/07 17:26:17;;;;;;;14.43;12.70;;;;;;;7.59;59.58;97613.31;8381910;28;20528;-74
2022/12/07 17:30:21;;;;;;;14.43;12.93;;;;;;;7.55;59.88;97614.34;8382351;28;20509;-74
2022/12/07 17:34:23;;;;;;;14.47;12.40;;;;;;;7.62;59.42;97618.38;8381735;28;20298;-74
2022/12/07 17:38:26;;;;;;;12.87;11.53;;;;;;;7.37;60.04;97610.72;8381700;28;20420;-74
2022/12/07 17:42:36;;;;;;;12.43;11.17;;;;;;;7.43;60.05;97620.78;8381762;28;20224;-74
2022/12/07 17:46:40;;;;;;;13.00;11.70;;;;;;;7.44;59.97;97612.16;8381574;28;20233;-74
2022/12/07 17:55:03;;;;;;;16.23;12.93;;;;;;;7.48;59.60;97611.13;8381294;28;20405;-73
2022/12/07 17:59:09;;;;;;;13.90;12.07;;;;;;;7.48;59.45;97594.84;8381295;28;20331;-72
2022/12/07 18:03:11;;;;;;;13.10;11.60;;;;;;;7.53;59.57;97598.94;8381862;28;20475;-74
2022/12/07 18:07:14;;;;;;;13.73;12.07;;;;;;;7.51;59.79;97599.91;8381921;28;20229;-73
2022/12/07 18:11:18;;;;;;;14.97;12.23;;;;;;;7.32;59.95;97600.56;8381646;28;20263;-75
2022/12/07 18:15:22;;;;;;;15.40;12.57;;;;;;;7.44;59.46;97594.97;8382530;28;20429;-72
2022/12/07 18:19:25;;;;;;;12.80;11.17;;;;;;;7.33;59.51;97594.53;8382505;28;20295;-72
2022/12/07 18:23:28;;;;;;;13.40;11.73;;;;;;;7.37;59.71;97595.28;8382039;28;20229;-73
2022/12/07 18:27:31;;;;;;;14.33;11.70;;;;;;;7.27;60.25;97601.63;8381976;28;20256;-74
2022/12/07 18:31:36;;;;;;;12.77;11.47;;;;;;;7.39;59.62;97590.91;8381929;28;20283;-73
2022/12/07 18:35:39;;;;;;;12.13;10.93;;;;;;;7.33;59.73;97597.13;8381501;28;20220;-74
2022/12/07 18:39:42;;;;;;;12.43;11.13;;;;;;;7.14;60.35;97602.09;8381323;28;20331;-73
2022/12/07 18:43:45;;;;;;;13.43;11.57;;;;;;;7.02;60.57;97605.09;8381641;28;20684;-73
2022/12/07 18:47:49;;;;;;;14.63;11.73;;;;;;;7.27;60.31;97599.06;8316015;28;20234;-74
2022/12/07 18:51:52;;;;;;;13.97;11.20;;;;;;;7.17;60.36;97614.00;8347876;28;20229;-72
2022/12/07 18:56:01;;;;;;;13.63;12.32;;;;;;;7.77;58.05;97602.31;8346932;28;20431;-74
2022/12/07 19:00:05;;;;;;;13.67;11.70;;;;;;;7.19;59.55;97605.31;8347789;28;20226;-74
2022/12/07 19:04:10;;;;;;;14.33;11.47;;;;;;;7.15;60.48;97598.63;8347704;28;20412;-74
2022/12/07 19:08:13;;;;;;;12.47;11.13;;;;;;;7.19;59.59;97609.66;8347582;28;20528;-72
2022/12/07 19:12:15;;;;;;;11.17;8.70;;;;;;;10.14;74.16;97607.53;8347542;28;20596;-73
2022/12/07 19:16:18;;;;;;;12.53;11.03;;;;;;;9.51;57.92;97605.34;8347514;28;20419;-74
2022/12/07 19:20:24;;;;;;;11.33;10.23;;;;;;;8.16;57.89;97600.78;8347247;28;20604;-74
2022/12/07 19:24:26;;;;;;;11.20;10.00;;;;;;;7.82;58.00;97572.06;8347155;28;20225;-74
2022/12/07 19:28:29;;;;;;;11.80;10.40;;;;;;;7.79;57.85;97589.38;8347311;28;20325;-74
2022/12/07 19:32:32;;;;;;;11.40;10.30;;;;;;;7.83;58.43;97593.50;8347022;28;20225;-74
2022/12/07 19:36:36;;;;;;;12.27;10.90;;;;;;;7.61;58.68;97590.91;8347185;28;20403;-74